sensor_id;sensor_type;location;lat;lon;timestamp;pressure;altitude;pressure_sealevel;temperature;humidity
15914;BME280;8055;51.930;8.840;2023-03-17T00:00:10;76304.78;;;-145.72;100.00
15914;BME280;8055;51.930;8.840;2023-03-17T00:02:37;76304.78;;;-145.72;100.00
15914;BME280;8055;51.930;8.840;2023-03-17T00:05:13;76304.78;;;-145.72;100.00
15914;BME280;8055;51.930;8.840;2023-03-17T00:07:39;76308.94;;;-145.72;100.00
15914;BME280;8055;51.930;8.840;2023-03-17T00:10:12;76311.00;;;-145.72;100.00
15914;BME280;8055;51.930;8.840;2023-03-17T00:12:37;76308.94;;;-145.72;100.00
15914;BME280;8055;51.930;8.840;2023-03-17T00:15:03;76317.22;;;-145.72;100.00
15914;BME280;8055;51.930;8.840;2023-03-17T00:17:29;76313.06;;;-145.72;100.00
15914;BME280;8055;51.930;8.840;2023-03-17T00:19:55;76321.34;;;-145.72;100.00
15914;BME280;8055;51.930;8.840;2023-03-17T00:22:20;76323.41;;;-145.72;100.00
15914;BME280;8055;51.930;8.840;2023-03-17T00:24:46;76325.47;;;-145.72;100.00
15914;BME280;8055;51.930;8.840;2023-03-17T00:27:12;76335.84;;;-145.72;100.00
15914;BME280;8055;51.930;8.840;2023-03-17T00:29:38;76333.75;;;-145.72;100.00
15914;BME280;8055;51.930;8.840;2023-03-17T00:32:07;76337.91;;;-145.72;100.00
15914;BME280;8055;51.930;8.840;2023-03-17T00:34:34;76333.75;;;-145.72;100.00
15914;BME280;8055;51.930;8.840;2023-03-17T00:37:00;76344.09;;;-145.72;100.00
15914;BME280;8055;51.930;8.840;2023-03-17T00:39:26;76350.31;;;-145.72;100.00
15914;BME280;8055;51.930;8.840;2023-03-17T00:41:51;76344.09;;;-145.72;100.00
15914;BME280;8055;51.930;8.840;2023-03-17T00:44:17;76348.25;;;-145.72;100.00
15914;BME280;8055;51.930;8.840;2023-03-17T00:46:42;76354.47;;;-145.72;100.00
15914;BME280;8055;51.930;8.840;2023-03-17T00:49:20;76348.25;;;-145.72;100.00
15914;BME280;8055;51.930;8.840;2023-03-17T00:51:48;76354.47;;;-145.72;100.00
15914;BME280;8055;51.930;8.840;2023-03-17T00:54:14;76350.31;;;-145.72;100.00
15914;BME280;8055;51.930;8.840;2023-03-17T00:56:41;76350.31;;;-145.72;100.00
15914;BME280;8055;51.930;8.840;2023-03-17T00:59:28;76339.97;;;-145.72;100.00
15914;BME280;8055;51.930;8.840;2023-03-17T01:01:55;76342.03;;;-145.72;100.00
15914;BME280;8055;51.930;8.840;2023-03-17T01:04:21;76342.03;;;-145.72;100.00
15914;BME280;8055;51.930;8.840;2023-03-17T01:06:48;76335.84;;;-145.72;100.00
15914;BME280;8055;51.930;8.840;2023-03-17T01:09:15;76342.03;;;-145.72;100.00
15914;BME280;8055;51.930;8.840;2023-03-17T01:11:41;76333.75;;;-145.72;100.00
15914;BME280;8055;51.930;8.840;2023-03-17T01:14:08;76337.91;;;-145.72;100.00
15914;BME280;8055;51.930;8.840;2023-03-17T01:16:34;76333.75;;;-145.72;100.00
15914;BME280;8055;51.930;8.840;2023-03-17T01:19:00;76331.69;;;-145.72;100.00
15914;BME280;8055;51.930;8.840;2023-03-17T01:21:25;76325.47;;;-145.72;100.00
15914;BME280;8055;51.930;8.840;2023-03-17T01:23:50;76321.34;;;-145.72;100.00
15914;BME280;8055;51.930;8.840;2023-03-17T01:26:16;76317.22;;;-145.72;100.00
15914;BME280;8055;51.930;8.840;2023-03-17T01:28:41;76313.06;;;-145.72;100.00
15914;BME280;8055;51.930;8.840;2023-03-17T01:31:07;76306.84;;;-145.72;100.00
15914;BME280;8055;51.930;8.840;2023-03-17T01:33:33;76308.94;;;-145.72;100.00
15914;BME280;8055;51.930;8.840;2023-03-17T01:35:59;76304.78;;;-145.72;100.00
15914;BME280;8055;51.930;8.840;2023-03-17T01:38:24;76304.78;;;-145.72;100.00
15914;BME280;8055;51.930;8.840;2023-03-17T01:40:50;76315.13;;;-145.72;100.00
15914;BME280;8055;51.930;8.840;2023-03-17T01:43:19;76317.22;;;-145.72;100.00
15914;BME280;8055;51.930;8.840;2023-03-17T01:54:33;76331.69;;;-145.72;100.00
15914;BME280;8055;51.930;8.840;2023-03-17T01:57:10;76317.22;;;-145.72;98.90
15914;BME280;8055;51.930;8.840;2023-03-17T01:59:43;76327.56;;;-145.72;100.00
15914;BME280;8055;51.930;8.840;2023-03-17T02:02:14;76333.75;;;-145.72;100.00
15914;BME280;8055;51.930;8.840;2023-03-17T02:04:41;76329.63;;;-145.72;100.00
15914;BME280;8055;51.930;8.840;2023-03-17T02:07:06;76323.41;;;-145.72;100.00
15914;BME280;8055;51.930;8.840;2023-03-17T02:09:32;76319.28;;;-145.72;100.00
15914;BME280;8055;51.930;8.840;2023-03-17T02:12:00;76321.34;;;-145.72;100.00
15914;BME280;8055;51.930;8.840;2023-03-17T02:14:27;76306.84;;;-145.72;100.00
15914;BME280;8055;51.930;8.840;2023-03-17T02:16:52;76308.94;;;-145.72;100.00
15914;BME280;8055;51.930;8.840;2023-03-17T02:19:18;76311.00;;;-145.72;100.00
15914;BME280;8055;51.930;8.840;2023-03-17T02:21:48;76304.78;;;-145.72;100.00
15914;BME280;8055;51.930;8.840;2023-03-17T02:26:43;76300.66;;;-145.72;100.00
15914;BME280;8055;51.930;8.840;2023-03-17T02:29:11;76296.50;;;-145.72;100.00
15914;BME280;8055;51.930;8.840;2023-03-17T02:31:37;76294.44;;;-145.72;100.00
15914;BME280;8055;51.930;8.840;2023-03-17T02:34:03;76298.59;;;-145.72;100.00
15914;BME280;8055;51.930;8.840;2023-03-17T02:36:28;76296.50;;;-145.72;100.00
15914;BME280;8055;51.930;8.840;2023-03-17T02:38:54;76311.00;;;-145.72;100.00
15914;BME280;8055;51.930;8.840;2023-03-17T02:41:19;76311.00;;;-145.72;100.00
15914;BME280;8055;51.930;8.840;2023-03-17T02:43:46;76313.06;;;-145.72;100.00
15914;BME280;8055;51.930;8.840;2023-03-17T02:46:11;76323.41;;;-145.72;100.00
15914;BME280;8055;51.930;8.840;2023-03-17T02:48:37;76333.75;;;-145.72;100.00
15914;BME280;8055;51.930;8.840;2023-03-17T02:51:03;76337.91;;;-145.72;100.00
15914;BME280;8055;51.930;8.840;2023-03-17T02:53:28;76346.19;;;-145.72;100.00
15914;BME280;8055;51.930;8.840;2023-03-17T02:55:54;76352.38;;;-145.72;100.00
15914;BME280;8055;51.930;8.840;2023-03-17T02:58:19;76364.81;;;-145.72;100.00
15914;BME280;8055;51.930;8.840;2023-03-17T03:00:44;76366.88;;;-145.72;100.00
15914;BME280;8055;51.930;8.840;2023-03-17T03:03:10;76364.81;;;-145.72;100.00
15914;BME280;8055;51.930;8.840;2023-03-17T03:05:35;76362.72;;;-145.72;100.00
15914;BME280;8055;51.930;8.840;2023-03-17T03:08:01;76366.88;;;-145.72;100.00
15914;BME280;8055;51.930;8.840;2023-03-17T03:10:27;76373.09;;;-145.72;100.00
15914;BME280;8055;51.930;8.840;2023-03-17T03:12:52;76371.00;;;-145.72;100.00
15914;BME280;8055;51.930;8.840;2023-03-17T03:15:18;76375.16;;;-145.72;100.00
15914;BME280;8055;51.930;8.840;2023-03-17T03:17:45;76389.63;;;-145.72;100.00
15914;BME280;8055;51.930;8.840;2023-03-17T03:20:11;76397.91;;;-145.72;100.00
15914;BME280;8055;51.930;8.840;2023-03-17T03:22:37;76395.84;;;-145.72;100.00
15914;BME280;8055;51.930;8.840;2023-03-17T03:25:03;76404.13;;;-145.72;100.00
15914;BME280;8055;51.930;8.840;2023-03-17T03:27:29;76406.19;;;-145.72;100.00
15914;BME280;8055;51.930;8.840;2023-03-17T03:29:56;76395.84;;;-145.72;100.00
15914;BME280;8055;51.930;8.840;2023-03-17T03:32:21;76391.72;;;-145.72;100.00
15914;BME280;8055;51.930;8.840;2023-03-17T03:34:47;76391.72;;;-145.72;100.00
15914;BME280;8055;51.930;8.840;2023-03-17T03:37:12;76393.78;;;-145.72;100.00
15914;BME280;8055;51.930;8.840;2023-03-17T03:39:37;76391.72;;;-145.72;100.00
15914;BME280;8055;51.930;8.840;2023-03-17T03:42:03;76404.13;;;-145.72;100.00
15914;BME280;8055;51.930;8.840;2023-03-17T03:44:28;76402.06;;;-145.72;100.00
15914;BME280;8055;51.930;8.840;2023-03-17T03:46:54;76397.91;;;-145.72;100.00
15914;BME280;8055;51.930;8.840;2023-03-17T03:49:19;76389.63;;;-145.72;100.00
15914;BME280;8055;51.930;8.840;2023-03-17T03:51:45;76395.84;;;-145.72;100.00
15914;BME280;8055;51.930;8.840;2023-03-17T03:54:10;76393.78;;;-145.72;100.00
15914;BME280;8055;51.930;8.840;2023-03-17T03:56:36;76395.84;;;-145.72;100.00
15914;BME280;8055;51.930;8.840;2023-03-17T03:59:01;76400.00;;;-145.72;100.00
15914;BME280;8055;51.930;8.840;2023-03-17T04:01:26;76404.13;;;-145.72;100.00
15914;BME280;8055;51.930;8.840;2023-03-17T04:03:52;76404.13;;;-145.72;100.00
15914;BME280;8055;51.930;8.840;2023-03-17T04:06:18;76412.41;;;-145.72;100.00
15914;BME280;8055;51.930;8.840;2023-03-17T04:08:43;76408.25;;;-145.72;100.00
15914;BME280;8055;51.930;8.840;2023-03-17T04:11:09;76408.25;;;-145.72;100.00
15914;BME280;8055;51.930;8.840;2023-03-17T04:13:34;76416.53;;;-145.72;100.00
15914;BME280;8055;51.930;8.840;2023-03-17T04:16:00;76416.53;;;-145.72;100.00
15914;BME280;8055;51.930;8.840;2023-03-17T04:18:25;76412.41;;;-145.72;100.00
15914;BME280;8055;51.930;8.840;2023-03-17T04:20:51;76420.69;;;-145.72;100.00
15914;BME280;8055;51.930;8.840;2023-03-17T04:23:16;76420.69;;;-145.72;100.00
15914;BME280;8055;51.930;8.840;2023-03-17T04:25:41;76420.69;;;-145.72;100.00
15914;BME280;8055;51.930;8.840;2023-03-17T04:28:07;76426.91;;;-145.72;100.00
15914;BME280;8055;51.930;8.840;2023-03-17T04:30:33;76426.91;;;-145.72;100.00
15914;BME280;8055;51.930;8.840;2023-03-17T04:32:58;76418.63;;;-145.72;100.00
15914;BME280;8055;51.930;8.840;2023-03-17T04:35:24;76418.63;;;-145.72;100.00
15914;BME280;8055;51.930;8.840;2023-03-17T04:37:49;76422.75;;;-145.72;100.00
15914;BME280;8055;51.930;8.840;2023-03-17T04:40:16;76422.75;;;-145.72;100.00
15914;BME280;8055;51.930;8.840;2023-03-17T04:42:41;76424.81;;;-145.72;100.00
15914;BME280;8055;51.930;8.840;2023-03-17T04:45:09;76426.91;;;-145.72;100.00
15914;BME280;8055;51.930;8.840;2023-03-17T04:47:35;76420.69;;;-145.72;100.00
15914;BME280;8055;51.930;8.840;2023-03-17T04:50:02;76424.81;;;-145.72;100.00
15914;BME280;8055;51.930;8.840;2023-03-17T04:52:28;76422.75;;;-145.72;100.00
15914;BME280;8055;51.930;8.840;2023-03-17T04:54:53;76412.41;;;-145.72;100.00
15914;BME280;8055;51.930;8.840;2023-03-17T04:57:19;76414.47;;;-145.72;100.00
15914;BME280;8055;51.930;8.840;2023-03-17T04:59:44;76410.34;;;-145.72;100.00
15914;BME280;8055;51.930;8.840;2023-03-17T05:02:10;76416.53;;;-145.72;100.00
15914;BME280;8055;51.930;8.840;2023-03-17T05:04:35;76433.09;;;-145.72;100.00
15914;BME280;8055;51.930;8.840;2023-03-17T05:07:02;76424.81;;;-145.72;100.00
15914;BME280;8055;51.930;8.840;2023-03-17T05:09:27;76433.09;;;-145.72;100.00
15914;BME280;8055;51.930;8.840;2023-03-17T05:11:53;76437.25;;;-145.72;100.00
15914;BME280;8055;51.930;8.840;2023-03-17T05:14:18;76428.97;;;-145.72;100.00
15914;BME280;8055;51.930;8.840;2023-03-17T05:16:46;76420.69;;;-145.72;100.00
15914;BME280;8055;51.930;8.840;2023-03-17T05:19:11;76424.81;;;-145.72;100.00
15914;BME280;8055;51.930;8.840;2023-03-17T05:21:37;76428.97;;;-145.72;100.00
15914;BME280;8055;51.930;8.840;2023-03-17T05:24:02;76426.91;;;-145.72;100.00
15914;BME280;8055;51.930;8.840;2023-03-17T05:26:28;76428.97;;;-145.72;100.00
15914;BME280;8055;51.930;8.840;2023-03-17T05:28:53;76428.97;;;-145.72;100.00
15914;BME280;8055;51.930;8.840;2023-03-17T05:31:18;76439.31;;;-145.72;100.00
15914;BME280;8055;51.930;8.840;2023-03-17T05:33:44;76439.31;;;-145.72;100.00
15914;BME280;8055;51.930;8.840;2023-03-17T05:36:11;76435.16;;;-145.72;100.00
15914;BME280;8055;51.930;8.840;2023-03-17T05:38:36;76437.25;;;-145.72;100.00
15914;BME280;8055;51.930;8.840;2023-03-17T05:41:02;76441.38;;;-145.72;100.00
15914;BME280;8055;51.930;8.840;2023-03-17T05:43:28;76439.31;;;-145.72;100.00
15914;BME280;8055;51.930;8.840;2023-03-17T05:45:54;76445.53;;;-145.72;100.00
15914;BME280;8055;51.930;8.840;2023-03-17T05:48:20;76439.31;;;-145.72;100.00
15914;BME280;8055;51.930;8.840;2023-03-17T05:50:45;76439.31;;;-145.72;100.00
15914;BME280;8055;51.930;8.840;2023-03-17T05:53:11;76441.38;;;-145.72;100.00
15914;BME280;8055;51.930;8.840;2023-03-17T05:55:37;76443.44;;;-145.72;100.00
15914;BME280;8055;51.930;8.840;2023-03-17T05:58:02;76437.25;;;-145.72;100.00
15914;BME280;8055;51.930;8.840;2023-03-17T06:00:29;76435.16;;;-145.72;100.00
15914;BME280;8055;51.930;8.840;2023-03-17T06:02:54;76426.91;;;-145.72;100.00
15914;BME280;8055;51.930;8.840;2023-03-17T06:05:20;76418.63;;;-145.72;100.00
15914;BME280;8055;51.930;8.840;2023-03-17T06:07:46;76414.47;;;-145.72;100.00
15914;BME280;8055;51.930;8.840;2023-03-17T06:10:12;76406.19;;;-145.72;100.00
15914;BME280;8055;51.930;8.840;2023-03-17T06:12:38;76408.25;;;-145.72;100.00
15914;BME280;8055;51.930;8.840;2023-03-17T06:15:04;76402.06;;;-145.72;100.00
15914;BME280;8055;51.930;8.840;2023-03-17T06:17:29;76397.91;;;-145.72;100.00
15914;BME280;8055;51.930;8.840;2023-03-17T06:19:55;76391.72;;;-145.72;100.00
15914;BME280;8055;51.930;8.840;2023-03-17T06:22:20;76381.34;;;-145.72;100.00
15914;BME280;8055;51.930;8.840;2023-03-17T06:24:46;76366.88;;;-145.72;100.00
15914;BME280;8055;51.930;8.840;2023-03-17T06:27:11;76362.72;;;-145.72;100.00
15914;BME280;8055;51.930;8.840;2023-03-17T06:29:38;76348.25;;;-145.72;100.00
15914;BME280;8055;51.930;8.840;2023-03-17T06:32:04;76350.31;;;-145.72;100.00
15914;BME280;8055;51.930;8.840;2023-03-17T06:34:29;76337.91;;;-145.72;100.00
15914;BME280;8055;51.930;8.840;2023-03-17T06:36:55;76317.22;;;-145.72;100.00
15914;BME280;8055;51.930;8.840;2023-03-17T06:39:21;76317.22;;;-145.72;100.00
15914;BME280;8055;51.930;8.840;2023-03-17T06:41:47;76311.00;;;-145.72;100.00
15914;BME280;8055;51.930;8.840;2023-03-17T06:44:12;76308.94;;;-145.72;100.00
15914;BME280;8055;51.930;8.840;2023-03-17T06:46:38;76294.44;;;-145.72;100.00
15914;BME280;8055;51.930;8.840;2023-03-17T06:49:04;76286.16;;;-145.72;100.00
15914;BME280;8055;51.930;8.840;2023-03-17T06:51:29;76275.81;;;-145.72;100.00
15914;BME280;8055;51.930;8.840;2023-03-17T06:53:56;76273.75;;;-145.72;100.00
15914;BME280;8055;51.930;8.840;2023-03-17T06:56:22;76259.25;;;-145.72;100.00
15914;BME280;8055;51.930;8.840;2023-03-17T06:58:48;76240.63;;;-145.72;100.00
15914;BME280;8055;51.930;8.840;2023-03-17T07:01:14;76224.09;;;-145.72;100.00
15914;BME280;8055;51.930;8.840;2023-03-17T07:03:40;76222.00;;;-145.72;100.00
15914;BME280;8055;51.930;8.840;2023-03-17T07:06:06;76213.72;;;-145.72;100.00
15914;BME280;8055;51.930;8.840;2023-03-17T07:08:32;76211.66;;;-145.72;100.00
15914;BME280;8055;51.930;8.840;2023-03-17T07:10:58;76207.53;;;-145.72;99.63
15914;BME280;8055;51.930;8.840;2023-03-17T07:13:23;76205.44;;;-145.72;98.89
15914;BME280;8055;51.930;8.840;2023-03-17T07:15:50;76205.44;;;-145.72;99.26
15914;BME280;8055;51.930;8.840;2023-03-17T07:18:15;76199.25;;;-145.72;100.00
15914;BME280;8055;51.930;8.840;2023-03-17T07:20:42;76186.81;;;-145.72;100.00
15914;BME280;8055;51.930;8.840;2023-03-17T07:23:15;76182.69;;;-145.72;97.08
15914;BME280;8055;51.930;8.840;2023-03-17T07:25:43;76164.06;;;-145.72;99.09
15914;BME280;8055;51.930;8.840;2023-03-17T07:28:09;76155.78;;;-145.72;98.95
15914;BME280;8055;51.930;8.840;2023-03-17T07:30:35;76143.38;;;-145.72;97.79
15914;BME280;8055;51.930;8.840;2023-03-17T07:33:01;76128.88;;;-145.72;97.43
15914;BME280;8055;51.930;8.840;2023-03-17T07:35:26;76122.69;;;-145.72;95.10
15914;BME280;8055;51.930;8.840;2023-03-17T07:37:52;76110.25;;;-145.72;95.05
15914;BME280;8055;51.930;8.840;2023-03-17T07:40:18;76101.97;;;-145.72;94.96
15914;BME280;8055;51.930;8.840;2023-03-17T07:42:43;76095.78;;;-145.72;93.02
15914;BME280;8055;51.930;8.840;2023-03-17T07:45:10;76083.34;;;-145.72;91.92
15914;BME280;8055;51.930;8.840;2023-03-17T07:47:35;76079.22;;;-145.72;92.02
15914;BME280;8055;51.930;8.840;2023-03-17T07:50:01;76062.66;;;-145.72;91.19
15914;BME280;8055;51.930;8.840;2023-03-17T07:52:27;76060.59;;;-145.72;91.37
15914;BME280;8055;51.930;8.840;2023-03-17T07:54:52;76054.38;;;-145.72;90.99
15914;BME280;8055;51.930;8.840;2023-03-17T07:57:18;76041.97;;;-145.72;91.63
15914;BME280;8055;51.930;8.840;2023-03-17T07:59:44;76029.56;;;-145.72;90.09
15914;BME280;8055;51.930;8.840;2023-03-17T08:02:16;76017.13;;;-145.72;88.75
15914;BME280;8055;51.930;8.840;2023-03-17T08:04:43;76002.66;;;-145.72;89.28
15914;BME280;8055;51.930;8.840;2023-03-17T08:07:09;75994.38;;;-145.72;88.12
15914;BME280;8055;51.930;8.840;2023-03-17T08:09:35;75975.75;;;-145.72;88.25
15914;BME280;8055;51.930;8.840;2023-03-17T08:12:04;75965.41;;;-145.72;88.10
15914;BME280;8055;51.930;8.840;2023-03-17T08:14:30;75944.72;;;-145.72;85.08
15914;BME280;8055;51.930;8.840;2023-03-17T08:16:55;75930.22;;;-145.72;86.03
15914;BME280;8055;51.930;8.840;2023-03-17T08:19:22;75907.47;;;-145.72;83.98
15914;BME280;8055;51.930;8.840;2023-03-17T08:21:48;75901.25;;;-145.72;84.70
15914;BME280;8055;51.930;8.840;2023-03-17T08:24:14;75886.78;;;-145.72;82.11
15914;BME280;8055;51.930;8.840;2023-03-17T08:26:39;75870.22;;;-145.72;81.12
15914;BME280;8055;51.930;8.840;2023-03-17T08:29:05;75872.28;;;-145.72;82.16
15914;BME280;8055;51.930;8.840;2023-03-17T08:31:32;75864.00;;;-145.72;83.58
15914;BME280;8055;51.930;8.840;2023-03-17T08:33:58;75845.38;;;-145.72;80.70
15914;BME280;8055;51.930;8.840;2023-03-17T08:36:24;75841.25;;;-145.72;77.86
15914;BME280;8055;51.930;8.840;2023-03-17T08:38:51;75820.56;;;-145.72;80.01
15914;BME280;8055;51.930;8.840;2023-03-17T08:41:19;75804.00;;;-145.72;78.88
15914;BME280;8055;51.930;8.840;2023-03-17T08:43:46;75783.31;;;-145.72;76.07
15914;BME280;8055;51.930;8.840;2023-03-17T08:46:21;75770.88;;;-145.72;78.40
15914;BME280;8055;51.930;8.840;2023-03-17T08:48:48;75741.91;;;-145.72;78.33
15914;BME280;8055;51.930;8.840;2023-03-17T08:51:14;75723.31;;;-145.72;78.68
15914;BME280;8055;51.930;8.840;2023-03-17T08:53:40;75704.69;;;-145.72;76.59
15914;BME280;8055;51.930;8.840;2023-03-17T08:56:06;75688.13;;;-145.72;78.46
15914;BME280;8055;51.930;8.840;2023-03-17T08:58:33;75665.38;;;-145.72;73.44
15914;BME280;8055;51.930;8.840;2023-03-17T09:01:00;75646.75;;;-145.72;74.84
15914;BME280;8055;51.930;8.840;2023-03-17T09:03:27;75619.84;;;-145.72;72.59
15914;BME280;8055;51.930;8.840;2023-03-17T09:05:53;75603.28;;;-145.72;72.21
15914;BME280;8055;51.930;8.840;2023-03-17T09:08:20;75592.94;;;-145.72;68.36
15914;BME280;8055;51.930;8.840;2023-03-17T09:10:46;75576.38;;;-145.72;68.89
15914;BME280;8055;51.930;8.840;2023-03-17T09:13:12;75543.28;;;-145.72;69.79
15914;BME280;8055;51.930;8.840;2023-03-17T09:15:38;75522.59;;;-145.72;71.60
15914;BME280;8055;51.930;8.840;2023-03-17T09:18:05;75514.31;;;-145.72;66.61
15914;BME280;8055;51.930;8.840;2023-03-17T09:20:31;75487.41;;;-145.72;67.82
15914;BME280;8055;51.930;8.840;2023-03-17T09:22:57;75477.06;;;-145.72;65.81
15914;BME280;8055;51.930;8.840;2023-03-17T09:25:22;75477.06;;;-145.72;70.67
15914;BME280;8055;51.930;8.840;2023-03-17T09:27:48;75468.78;;;-145.72;66.64
15914;BME280;8055;51.930;8.840;2023-03-17T09:30:14;75475.00;;;-145.72;65.29
15914;BME280;8055;51.930;8.840;2023-03-17T09:32:40;75464.66;;;-145.72;65.74
15914;BME280;8055;51.930;8.840;2023-03-17T09:35:06;75458.44;;;-145.72;65.48
15914;BME280;8055;51.930;8.840;2023-03-17T09:37:32;75443.97;;;-145.72;64.61
15914;BME280;8055;51.930;8.840;2023-03-17T09:39:59;75433.63;;;-145.72;65.67
15914;BME280;8055;51.930;8.840;2023-03-17T09:45:38;75412.94;;;-145.72;65.23
15914;BME280;8055;51.930;8.840;2023-03-17T09:50:55;75394.31;;;-145.72;62.80
15914;BME280;8055;51.930;8.840;2023-03-17T09:53:34;75398.44;;;-145.72;60.46
15914;BME280;8055;51.930;8.840;2023-03-17T09:56:14;75377.75;;;-145.72;66.30
15914;BME280;8055;51.930;8.840;2023-03-17T09:58:46;75373.63;;;-145.72;63.19
15914;BME280;8055;51.930;8.840;2023-03-17T10:01:14;75365.34;;;-145.72;61.16
15914;BME280;8055;51.930;8.840;2023-03-17T10:03:40;75357.06;;;-145.72;61.56
15914;BME280;8055;51.930;8.840;2023-03-17T10:06:22;75336.38;;;-145.72;62.67
15914;BME280;8055;51.930;8.840;2023-03-17T10:09:01;75323.97;;;-145.72;63.93
15914;BME280;8055;51.930;8.840;2023-03-17T10:11:36;75299.13;;;-145.72;61.31
15914;BME280;8055;51.930;8.840;2023-03-17T10:14:26;75268.09;;;-145.72;63.23
15914;BME280;8055;51.930;8.840;2023-03-17T10:20:04;75226.72;;;-145.72;61.76
15914;BME280;8055;51.930;8.840;2023-03-17T10:22:39;75199.81;;;-145.72;60.13
15914;BME280;8055;51.930;8.840;2023-03-17T10:25:19;75189.47;;;-145.72;59.07
15914;BME280;8055;51.930;8.840;2023-03-17T10:27:51;75166.72;;;-145.72;60.06
15914;BME280;8055;51.930;8.840;2023-03-17T10:30:21;75156.38;;;-145.72;58.49
15914;BME280;8055;51.930;8.840;2023-03-17T10:32:47;75146.03;;;-145.72;57.39
15914;BME280;8055;51.930;8.840;2023-03-17T10:35:14;75129.47;;;-145.72;55.76
15914;BME280;8055;51.930;8.840;2023-03-17T10:37:41;75106.72;;;-145.72;54.30
15914;BME280;8055;51.930;8.840;2023-03-17T10:40:18;75092.25;;;-145.72;55.89
15914;BME280;8055;51.930;8.840;2023-03-17T10:42:52;75057.06;;;-145.72;58.89
15914;BME280;8055;51.930;8.840;2023-03-17T10:45:28;75040.53;;;-145.72;54.84
15914;BME280;8055;51.930;8.840;2023-03-17T10:47:56;75042.59;;;-145.72;53.57
15914;BME280;8055;51.930;8.840;2023-03-17T10:55:38;75013.63;;;-145.72;54.59
15914;BME280;8055;51.930;8.840;2023-03-17T11:00:56;74939.16;;;-145.72;55.04
15914;BME280;8055;51.930;8.840;2023-03-17T11:03:25;74945.34;;;-145.72;53.67
15914;BME280;8055;51.930;8.840;2023-03-17T11:06:09;74935.00;;;-145.72;52.05
15914;BME280;8055;51.930;8.840;2023-03-17T11:08:54;74932.94;;;-145.72;51.79
15914;BME280;8055;51.930;8.840;2023-03-17T11:11:26;74928.81;;;-145.72;50.45
15914;BME280;8055;51.930;8.840;2023-03-17T11:14:09;74908.13;;;-145.72;48.41
15914;BME280;8055;51.930;8.840;2023-03-17T11:17:00;74897.78;;;-145.72;52.21
15914;BME280;8055;51.930;8.840;2023-03-17T11:19:34;74891.56;;;-145.72;49.78
15914;BME280;8055;51.930;8.840;2023-03-17T11:22:16;74877.09;;;-145.72;50.08
15914;BME280;8055;51.930;8.840;2023-03-17T11:25:14;74881.22;;;-145.72;53.06
15914;BME280;8055;51.930;8.840;2023-03-17T11:27:47;74883.28;;;-145.72;52.68
15914;BME280;8055;51.930;8.840;2023-03-17T11:36:13;74827.44;;;-145.72;53.08
15914;BME280;8055;51.930;8.840;2023-03-17T11:38:59;74796.41;;;-145.72;47.94
15914;BME280;8055;51.930;8.840;2023-03-17T11:41:34;74777.78;;;-145.72;47.85
15914;BME280;8055;51.930;8.840;2023-03-17T11:54:42;74765.38;;;-145.72;48.30
15914;BME280;8055;51.930;8.840;2023-03-17T11:57:22;74755.03;;;-145.72;48.42
15914;BME280;8055;51.930;8.840;2023-03-17T12:02:45;74740.56;;;-145.72;48.23
15914;BME280;8055;51.930;8.840;2023-03-17T12:05:17;74734.34;;;-145.72;47.29
15914;BME280;8055;51.930;8.840;2023-03-17T12:07:49;74732.28;;;-145.72;48.30
15914;BME280;8055;51.930;8.840;2023-03-17T12:13:10;74724.00;;;-145.72;49.50
15914;BME280;8055;51.930;8.840;2023-03-17T12:15:41;74724.00;;;-145.72;48.91
15914;BME280;8055;51.930;8.840;2023-03-17T12:18:14;74719.88;;;-145.72;49.75
15914;BME280;8055;51.930;8.840;2023-03-17T12:20:57;74709.53;;;-145.72;48.91
15914;BME280;8055;51.930;8.840;2023-03-17T12:23:46;74699.19;;;-145.72;49.75
15914;BME280;8055;51.930;8.840;2023-03-17T12:29:13;74699.19;;;-145.72;49.11
15914;BME280;8055;51.930;8.840;2023-03-17T12:31:47;74692.97;;;-145.72;49.23
15914;BME280;8055;51.930;8.840;2023-03-17T12:34:53;74699.19;;;-145.72;49.59
15914;BME280;8055;51.930;8.840;2023-03-17T12:37:20;74703.31;;;-145.72;49.87
15914;BME280;8055;51.930;8.840;2023-03-17T12:39:55;74688.84;;;-145.72;50.76
15914;BME280;8055;51.930;8.840;2023-03-17T12:42:44;74661.94;;;-145.72;48.85
15914;BME280;8055;51.930;8.840;2023-03-17T12:45:17;74664.00;;;-145.72;50.83
15914;BME280;8055;51.930;8.840;2023-03-17T12:56:23;74641.25;;;-145.72;49.12
15914;BME280;8055;51.930;8.840;2023-03-17T12:58:52;74641.25;;;-145.72;50.25
15914;BME280;8055;51.930;8.840;2023-03-17T13:01:31;74645.38;;;-145.72;46.18
15914;BME280;8055;51.930;8.840;2023-03-17T13:04:29;74637.13;;;-145.72;48.15
15914;BME280;8055;51.930;8.840;2023-03-17T13:07:10;74645.38;;;-145.72;48.62
15914;BME280;8055;51.930;8.840;2023-03-17T13:15:47;74661.94;;;-145.72;51.60
15914;BME280;8055;51.930;8.840;2023-03-17T13:20:50;74664.00;;;-145.72;51.84
15914;BME280;8055;51.930;8.840;2023-03-17T13:23:16;74672.28;;;-145.72;53.34
15914;BME280;8055;51.930;8.840;2023-03-17T13:25:50;74680.56;;;-145.72;50.43
15914;BME280;8055;51.930;8.840;2023-03-17T13:28:26;74682.63;;;-145.72;51.64
15914;BME280;8055;51.930;8.840;2023-03-17T13:33:42;74686.75;;;-145.72;53.15
15914;BME280;8055;51.930;8.840;2023-03-17T13:36:20;74701.25;;;-145.72;54.09
15914;BME280;8055;51.930;8.840;2023-03-17T13:39:19;74699.19;;;-145.72;52.63
15914;BME280;8055;51.930;8.840;2023-03-17T13:44:37;74705.38;;;-145.72;53.90
15914;BME280;8055;51.930;8.840;2023-03-17T13:47:26;74711.59;;;-145.72;53.98
15914;BME280;8055;51.930;8.840;2023-03-17T13:50:02;74717.78;;;-145.72;54.57
15914;BME280;8055;51.930;8.840;2023-03-17T13:52:33;74734.34;;;-145.72;55.76
15914;BME280;8055;51.930;8.840;2023-03-17T13:58:16;74736.41;;;-145.72;53.03
15914;BME280;8055;51.930;8.840;2023-03-17T14:00:44;74755.03;;;-145.72;57.73
15914;BME280;8055;51.930;8.840;2023-03-17T14:03:16;74781.91;;;-145.72;54.30
15914;BME280;8055;51.930;8.840;2023-03-17T14:05:47;74786.06;;;-145.72;54.48
15914;BME280;8055;51.930;8.840;2023-03-17T14:08:22;74786.06;;;-145.72;55.44
15914;BME280;8055;51.930;8.840;2023-03-17T14:10:56;74794.34;;;-145.72;55.62